Meers, Oklahoma
Current Conditions -  °F | °C
As of 8:58 AM on Tuesday 21 Oct 2014 (Local Time) from KFSI Reporting Station
Clear Clear  
Wind Chill: 16°   Ceiling: Unl
Heat Index: 16°   Visibility: 9mi
Dew Point: 16°   Wind: 2mph
Humidity: 99%   Direction: 150°SSE
Pressure: 30.1"   Gusts: NA
Location:  34.78°N, 98.58°W
Report Text: KFSI 211358Z AUTO 15002KT 9SM CLR 16/16 A3010 RMK AO2 SLP188 T01580156
Loading
Personal Weather Stations






























Interactive Weather Map
Tropical Storm Tracking
New forecast layout! Learn more

10-Day Weather Forecast

Advertisements
Track Severe Weather on mobile